sensor_id;sensor_type;location;lat;lon;timestamp;P1;durP1;ratioP1;P2;durP2;ratioP2
20535;SDS011;10426;49.420;8.390;2023-03-11T00:00:53;1.60;;;0.60;;
20535;SDS011;10426;49.420;8.390;2023-03-11T00:03:19;1.45;;;0.60;;
20535;SDS011;10426;49.420;8.390;2023-03-11T00:05:49;0.57;;;0.57;;
20535;SDS011;10426;49.420;8.390;2023-03-11T00:08:17;1.83;;;0.70;;
20535;SDS011;10426;49.420;8.390;2023-03-11T00:10:44;0.77;;;0.63;;
20535;SDS011;10426;49.420;8.390;2023-03-11T00:13:12;1.30;;;0.70;;
20535;SDS011;10426;49.420;8.390;2023-03-11T00:15:41;2.00;;;0.73;;
20535;SDS011;10426;49.420;8.390;2023-03-11T00:18:08;1.77;;;0.70;;
20535;SDS011;10426;49.420;8.390;2023-03-11T00:20:36;0.75;;;0.60;;
20535;SDS011;10426;49.420;8.390;2023-03-11T00:23:03;1.50;;;0.77;;
20535;SDS011;10426;49.420;8.390;2023-03-11T00:25:31;1.65;;;0.90;;
20535;SDS011;10426;49.420;8.390;2023-03-11T00:27:58;1.10;;;0.70;;
20535;SDS011;10426;49.420;8.390;2023-03-11T00:30:25;1.52;;;0.70;;
20535;SDS011;10426;49.420;8.390;2023-03-11T00:32:54;1.55;;;0.90;;
20535;SDS011;10426;49.420;8.390;2023-03-11T00:35:22;1.90;;;0.80;;
20535;SDS011;10426;49.420;8.390;2023-03-11T00:37:51;1.15;;;0.70;;
20535;SDS011;10426;49.420;8.390;2023-03-11T00:40:18;1.33;;;1.00;;
20535;SDS011;10426;49.420;8.390;2023-03-11T00:42:45;2.35;;;0.80;;
20535;SDS011;10426;49.420;8.390;2023-03-11T00:45:12;2.03;;;0.80;;
20535;SDS011;10426;49.420;8.390;2023-03-11T00:47:39;0.90;;;0.80;;
20535;SDS011;10426;49.420;8.390;2023-03-11T00:50:08;1.45;;;0.80;;
20535;SDS011;10426;49.420;8.390;2023-03-11T00:52:36;2.05;;;0.77;;
20535;SDS011;10426;49.420;8.390;2023-03-11T00:55:03;1.98;;;1.08;;
20535;SDS011;10426;49.420;8.390;2023-03-11T00:57:30;1.77;;;0.90;;
20535;SDS011;10426;49.420;8.390;2023-03-11T00:59:57;2.13;;;0.90;;
20535;SDS011;10426;49.420;8.390;2023-03-11T01:02:24;1.48;;;0.98;;
20535;SDS011;10426;49.420;8.390;2023-03-11T01:04:52;1.88;;;0.90;;
20535;SDS011;10426;49.420;8.390;2023-03-11T01:07:20;1.00;;;0.90;;
20535;SDS011;10426;49.420;8.390;2023-03-11T01:09:47;2.50;;;0.90;;
20535;SDS011;10426;49.420;8.390;2023-03-11T01:12:14;1.35;;;1.00;;
20535;SDS011;10426;49.420;8.390;2023-03-11T01:14:40;2.83;;;1.00;;
20535;SDS011;10426;49.420;8.390;2023-03-11T01:17:07;3.25;;;0.93;;
20535;SDS011;10426;49.420;8.390;2023-03-11T01:19:33;2.97;;;1.20;;
20535;SDS011;10426;49.420;8.390;2023-03-11T01:22:00;1.77;;;1.05;;
20535;SDS011;10426;49.420;8.390;2023-03-11T01:24:28;1.97;;;1.00;;
20535;SDS011;10426;49.420;8.390;2023-03-11T01:26:55;1.67;;;0.95;;
20535;SDS011;10426;49.420;8.390;2023-03-11T01:29:21;1.57;;;0.93;;
20535;SDS011;10426;49.420;8.390;2023-03-11T01:31:48;2.15;;;1.20;;
20535;SDS011;10426;49.420;8.390;2023-03-11T01:34:14;3.22;;;1.33;;
20535;SDS011;10426;49.420;8.390;2023-03-11T01:36:41;1.77;;;0.93;;
20535;SDS011;10426;49.420;8.390;2023-03-11T01:39:07;1.67;;;1.00;;
20535;SDS011;10426;49.420;8.390;2023-03-11T01:41:35;2.85;;;1.20;;
20535;SDS011;10426;49.420;8.390;2023-03-11T01:44:02;1.80;;;1.13;;
20535;SDS011;10426;49.420;8.390;2023-03-11T01:46:30;2.75;;;1.15;;
20535;SDS011;10426;49.420;8.390;2023-03-11T01:48:57;2.03;;;1.20;;
20535;SDS011;10426;49.420;8.390;2023-03-11T01:51:24;2.53;;;1.20;;
20535;SDS011;10426;49.420;8.390;2023-03-11T01:53:52;2.78;;;1.10;;
20535;SDS011;10426;49.420;8.390;2023-03-11T01:56:21;3.15;;;1.00;;
20535;SDS011;10426;49.420;8.390;2023-03-11T01:58:50;1.80;;;1.10;;
20535;SDS011;10426;49.420;8.390;2023-03-11T02:01:18;2.90;;;1.20;;
20535;SDS011;10426;49.420;8.390;2023-03-11T02:03:45;1.70;;;1.13;;
20535;SDS011;10426;49.420;8.390;2023-03-11T02:06:13;2.10;;;1.23;;
20535;SDS011;10426;49.420;8.390;2023-03-11T02:08:41;2.63;;;1.10;;
20535;SDS011;10426;49.420;8.390;2023-03-11T02:11:09;1.80;;;1.10;;
20535;SDS011;10426;49.420;8.390;2023-03-11T02:13:36;2.27;;;1.10;;
20535;SDS011;10426;49.420;8.390;2023-03-11T02:16:06;2.15;;;1.10;;
20535;SDS011;10426;49.420;8.390;2023-03-11T02:18:33;3.97;;;1.25;;
20535;SDS011;10426;49.420;8.390;2023-03-11T02:21:02;2.25;;;1.20;;
20535;SDS011;10426;49.420;8.390;2023-03-11T02:23:33;3.75;;;1.10;;
20535;SDS011;10426;49.420;8.390;2023-03-11T02:26:00;2.00;;;1.20;;
20535;SDS011;10426;49.420;8.390;2023-03-11T02:28:31;2.90;;;1.30;;
20535;SDS011;10426;49.420;8.390;2023-03-11T02:30:59;4.00;;;1.20;;
20535;SDS011;10426;49.420;8.390;2023-03-11T02:33:27;2.45;;;1.10;;
20535;SDS011;10426;49.420;8.390;2023-03-11T02:35:55;1.70;;;1.00;;
20535;SDS011;10426;49.420;8.390;2023-03-11T02:38:21;1.88;;;0.93;;
20535;SDS011;10426;49.420;8.390;2023-03-11T02:40:52;3.92;;;1.42;;
20535;SDS011;10426;49.420;8.390;2023-03-11T02:43:21;2.70;;;1.20;;
20535;SDS011;10426;49.420;8.390;2023-03-11T02:45:50;3.30;;;1.15;;
20535;SDS011;10426;49.420;8.390;2023-03-11T02:48:17;1.93;;;1.10;;
20535;SDS011;10426;49.420;8.390;2023-03-11T02:50:44;2.97;;;1.15;;
20535;SDS011;10426;49.420;8.390;2023-03-11T02:53:11;2.40;;;1.00;;
20535;SDS011;10426;49.420;8.390;2023-03-11T02:55:38;2.83;;;1.05;;
20535;SDS011;10426;49.420;8.390;2023-03-11T02:58:05;1.38;;;0.90;;
20535;SDS011;10426;49.420;8.390;2023-03-11T03:00:31;2.20;;;1.10;;
20535;SDS011;10426;49.420;8.390;2023-03-11T03:03:00;3.65;;;1.30;;
20535;SDS011;10426;49.420;8.390;2023-03-11T03:05:26;2.83;;;1.27;;
20535;SDS011;10426;49.420;8.390;2023-03-11T03:07:53;2.78;;;1.38;;
20535;SDS011;10426;49.420;8.390;2023-03-11T03:10:20;3.88;;;1.27;;
20535;SDS011;10426;49.420;8.390;2023-03-11T03:12:49;2.17;;;1.33;;
20535;SDS011;10426;49.420;8.390;2023-03-11T03:15:16;2.03;;;1.23;;
20535;SDS011;10426;49.420;8.390;2023-03-11T03:17:42;2.40;;;1.50;;
20535;SDS011;10426;49.420;8.390;2023-03-11T03:20:12;4.27;;;1.53;;
20535;SDS011;10426;49.420;8.390;2023-03-11T03:22:38;3.45;;;1.30;;
20535;SDS011;10426;49.420;8.390;2023-03-11T03:25:06;3.15;;;1.20;;
20535;SDS011;10426;49.420;8.390;2023-03-11T03:27:33;2.15;;;1.40;;
20535;SDS011;10426;49.420;8.390;2023-03-11T03:29:59;4.85;;;1.70;;
20535;SDS011;10426;49.420;8.390;2023-03-11T03:32:26;4.88;;;1.50;;
20535;SDS011;10426;49.420;8.390;2023-03-11T03:34:53;2.90;;;1.20;;
20535;SDS011;10426;49.420;8.390;2023-03-11T03:37:25;4.80;;;1.95;;
20535;SDS011;10426;49.420;8.390;2023-03-11T03:39:52;5.63;;;2.33;;
20535;SDS011;10426;49.420;8.390;2023-03-11T03:42:19;4.00;;;2.20;;
20535;SDS011;10426;49.420;8.390;2023-03-11T03:44:46;5.85;;;2.95;;
20535;SDS011;10426;49.420;8.390;2023-03-11T03:47:12;3.88;;;2.30;;
20535;SDS011;10426;49.420;8.390;2023-03-11T03:49:39;5.68;;;2.10;;
20535;SDS011;10426;49.420;8.390;2023-03-11T03:52:05;4.53;;;1.90;;
20535;SDS011;10426;49.420;8.390;2023-03-11T03:54:34;4.28;;;1.50;;
20535;SDS011;10426;49.420;8.390;2023-03-11T03:57:01;6.10;;;1.52;;
20535;SDS011;10426;49.420;8.390;2023-03-11T03:59:27;3.47;;;1.50;;
20535;SDS011;10426;49.420;8.390;2023-03-11T04:01:54;3.95;;;1.30;;
20535;SDS011;10426;49.420;8.390;2023-03-11T04:04:21;5.13;;;1.70;;
20535;SDS011;10426;49.420;8.390;2023-03-11T04:06:47;3.90;;;1.60;;
20535;SDS011;10426;49.420;8.390;2023-03-11T04:09:14;4.53;;;1.60;;
20535;SDS011;10426;49.420;8.390;2023-03-11T04:11:42;3.20;;;1.50;;
20535;SDS011;10426;49.420;8.390;2023-03-11T04:14:09;4.47;;;1.50;;
20535;SDS011;10426;49.420;8.390;2023-03-11T04:16:35;5.30;;;1.40;;
20535;SDS011;10426;49.420;8.390;2023-03-11T04:19:02;5.28;;;1.73;;
20535;SDS011;10426;49.420;8.390;2023-03-11T04:21:29;4.47;;;1.60;;
20535;SDS011;10426;49.420;8.390;2023-03-11T04:23:56;2.75;;;1.20;;
20535;SDS011;10426;49.420;8.390;2023-03-11T04:26:23;4.63;;;1.23;;
20535;SDS011;10426;49.420;8.390;2023-03-11T04:28:51;4.45;;;1.33;;
20535;SDS011;10426;49.420;8.390;2023-03-11T04:31:17;4.35;;;1.20;;
20535;SDS011;10426;49.420;8.390;2023-03-11T04:33:44;2.10;;;1.30;;
20535;SDS011;10426;49.420;8.390;2023-03-11T04:36:11;3.50;;;1.50;;
20535;SDS011;10426;49.420;8.390;2023-03-11T04:38:38;3.45;;;1.40;;
20535;SDS011;10426;49.420;8.390;2023-03-11T04:41:04;3.53;;;1.40;;
20535;SDS011;10426;49.420;8.390;2023-03-11T04:43:32;2.67;;;1.25;;
20535;SDS011;10426;49.420;8.390;2023-03-11T04:46:00;3.42;;;1.30;;
20535;SDS011;10426;49.420;8.390;2023-03-11T04:48:27;2.65;;;1.33;;
20535;SDS011;10426;49.420;8.390;2023-03-11T04:50:53;2.90;;;1.58;;
20535;SDS011;10426;49.420;8.390;2023-03-11T04:53:20;4.80;;;1.40;;
20535;SDS011;10426;49.420;8.390;2023-03-11T04:55:47;4.47;;;1.57;;
20535;SDS011;10426;49.420;8.390;2023-03-11T04:58:14;3.92;;;1.50;;
20535;SDS011;10426;49.420;8.390;2023-03-11T05:00:41;3.78;;;1.60;;
20535;SDS011;10426;49.420;8.390;2023-03-11T05:03:09;4.38;;;1.50;;
20535;SDS011;10426;49.420;8.390;2023-03-11T05:05:36;3.00;;;1.50;;
20535;SDS011;10426;49.420;8.390;2023-03-11T05:08:03;7.07;;;1.80;;
20535;SDS011;10426;49.420;8.390;2023-03-11T05:10:29;4.13;;;1.48;;
20535;SDS011;10426;49.420;8.390;2023-03-11T05:12:56;3.80;;;1.70;;
20535;SDS011;10426;49.420;8.390;2023-03-11T05:15:23;5.20;;;1.55;;
20535;SDS011;10426;49.420;8.390;2023-03-11T05:17:49;4.82;;;1.50;;
20535;SDS011;10426;49.420;8.390;2023-03-11T05:20:18;3.15;;;1.48;;
20535;SDS011;10426;49.420;8.390;2023-03-11T05:22:44;4.28;;;1.40;;
20535;SDS011;10426;49.420;8.390;2023-03-11T05:25:11;4.45;;;1.48;;
20535;SDS011;10426;49.420;8.390;2023-03-11T05:27:38;5.13;;;1.60;;
20535;SDS011;10426;49.420;8.390;2023-03-11T05:30:05;4.72;;;1.40;;
20535;SDS011;10426;49.420;8.390;2023-03-11T05:32:32;3.60;;;1.37;;
20535;SDS011;10426;49.420;8.390;2023-03-11T05:34:58;4.75;;;1.40;;
20535;SDS011;10426;49.420;8.390;2023-03-11T05:37:26;4.72;;;1.35;;
20535;SDS011;10426;49.420;8.390;2023-03-11T05:39:53;3.65;;;1.42;;
20535;SDS011;10426;49.420;8.390;2023-03-11T05:42:20;5.25;;;1.80;;
20535;SDS011;10426;49.420;8.390;2023-03-11T05:44:46;4.97;;;1.60;;
20535;SDS011;10426;49.420;8.390;2023-03-11T05:47:13;3.15;;;1.67;;
20535;SDS011;10426;49.420;8.390;2023-03-11T05:49:41;4.82;;;1.80;;
20535;SDS011;10426;49.420;8.390;2023-03-11T05:52:08;6.25;;;1.90;;
20535;SDS011;10426;49.420;8.390;2023-03-11T05:54:36;7.70;;;1.80;;
20535;SDS011;10426;49.420;8.390;2023-03-11T05:57:02;3.92;;;1.63;;
20535;SDS011;10426;49.420;8.390;2023-03-11T05:59:29;4.47;;;1.70;;
20535;SDS011;10426;49.420;8.390;2023-03-11T06:01:56;5.28;;;1.52;;
20535;SDS011;10426;49.420;8.390;2023-03-11T06:04:23;6.72;;;2.00;;
20535;SDS011;10426;49.420;8.390;2023-03-11T06:06:50;3.92;;;1.77;;
20535;SDS011;10426;49.420;8.390;2023-03-11T06:09:16;4.50;;;1.70;;
20535;SDS011;10426;49.420;8.390;2023-03-11T06:11:44;4.13;;;1.60;;
20535;SDS011;10426;49.420;8.390;2023-03-11T06:14:11;5.05;;;1.92;;
20535;SDS011;10426;49.420;8.390;2023-03-11T06:16:38;4.13;;;1.63;;
20535;SDS011;10426;49.420;8.390;2023-03-11T06:19:05;5.28;;;1.73;;
20535;SDS011;10426;49.420;8.390;2023-03-11T06:21:32;2.70;;;1.48;;
20535;SDS011;10426;49.420;8.390;2023-03-11T06:23:58;4.88;;;1.63;;
20535;SDS011;10426;49.420;8.390;2023-03-11T06:26:25;6.95;;;1.77;;
20535;SDS011;10426;49.420;8.390;2023-03-11T06:28:53;5.38;;;1.60;;
20535;SDS011;10426;49.420;8.390;2023-03-11T06:31:20;5.10;;;1.83;;
20535;SDS011;10426;49.420;8.390;2023-03-11T06:33:48;4.63;;;2.13;;
20535;SDS011;10426;49.420;8.390;2023-03-11T06:36:15;5.38;;;1.80;;
20535;SDS011;10426;49.420;8.390;2023-03-11T06:38:42;5.35;;;2.10;;
20535;SDS011;10426;49.420;8.390;2023-03-11T06:41:10;5.30;;;1.88;;
20535;SDS011;10426;49.420;8.390;2023-03-11T06:43:37;7.15;;;1.90;;
20535;SDS011;10426;49.420;8.390;2023-03-11T06:46:08;4.38;;;1.67;;
20535;SDS011;10426;49.420;8.390;2023-03-11T06:48:35;6.13;;;1.90;;
20535;SDS011;10426;49.420;8.390;2023-03-11T06:51:02;7.40;;;2.50;;
20535;SDS011;10426;49.420;8.390;2023-03-11T06:53:29;6.05;;;2.03;;
20535;SDS011;10426;49.420;8.390;2023-03-11T06:55:57;4.90;;;1.80;;
20535;SDS011;10426;49.420;8.390;2023-03-11T06:58:23;4.40;;;1.75;;
20535;SDS011;10426;49.420;8.390;2023-03-11T07:00:50;6.22;;;2.22;;
20535;SDS011;10426;49.420;8.390;2023-03-11T07:03:18;4.97;;;1.80;;
20535;SDS011;10426;49.420;8.390;2023-03-11T07:05:44;4.75;;;1.73;;
20535;SDS011;10426;49.420;8.390;2023-03-11T07:08:11;7.90;;;2.05;;
20535;SDS011;10426;49.420;8.390;2023-03-11T07:10:38;4.45;;;1.80;;
20535;SDS011;10426;49.420;8.390;2023-03-11T07:13:04;5.25;;;1.92;;
20535;SDS011;10426;49.420;8.390;2023-03-11T07:15:32;5.13;;;1.80;;
20535;SDS011;10426;49.420;8.390;2023-03-11T07:17:59;7.97;;;2.13;;
20535;SDS011;10426;49.420;8.390;2023-03-11T07:20:28;4.57;;;2.15;;
20535;SDS011;10426;49.420;8.390;2023-03-11T07:22:54;5.00;;;2.00;;
20535;SDS011;10426;49.420;8.390;2023-03-11T07:25:21;6.10;;;1.80;;
20535;SDS011;10426;49.420;8.390;2023-03-11T07:27:47;4.77;;;1.83;;
20535;SDS011;10426;49.420;8.390;2023-03-11T07:30:15;4.28;;;2.05;;
20535;SDS011;10426;49.420;8.390;2023-03-11T07:32:41;4.43;;;1.60;;
20535;SDS011;10426;49.420;8.390;2023-03-11T07:35:08;4.15;;;1.70;;
20535;SDS011;10426;49.420;8.390;2023-03-11T07:37:36;3.63;;;1.70;;
20535;SDS011;10426;49.420;8.390;2023-03-11T07:40:03;7.13;;;1.83;;
20535;SDS011;10426;49.420;8.390;2023-03-11T07:42:30;4.97;;;1.75;;
20535;SDS011;10426;49.420;8.390;2023-03-11T07:44:58;5.27;;;1.70;;
20535;SDS011;10426;49.420;8.390;2023-03-11T07:47:24;3.88;;;2.00;;
20535;SDS011;10426;49.420;8.390;2023-03-11T07:49:51;3.38;;;2.00;;
20535;SDS011;10426;49.420;8.390;2023-03-11T07:52:18;5.47;;;2.03;;
20535;SDS011;10426;49.420;8.390;2023-03-11T07:54:45;5.68;;;1.92;;
20535;SDS011;10426;49.420;8.390;2023-03-11T07:57:12;4.95;;;1.70;;
20535;SDS011;10426;49.420;8.390;2023-03-11T07:59:41;6.03;;;1.95;;
20535;SDS011;10426;49.420;8.390;2023-03-11T08:02:08;6.60;;;2.08;;
20535;SDS011;10426;49.420;8.390;2023-03-11T08:04:35;4.27;;;1.77;;
20535;SDS011;10426;49.420;8.390;2023-03-11T08:07:01;4.90;;;1.80;;
20535;SDS011;10426;49.420;8.390;2023-03-11T08:09:28;5.50;;;1.88;;
20535;SDS011;10426;49.420;8.390;2023-03-11T08:11:56;3.75;;;1.73;;
20535;SDS011;10426;49.420;8.390;2023-03-11T08:14:22;5.25;;;1.77;;
20535;SDS011;10426;49.420;8.390;2023-03-11T08:16:49;5.43;;;1.70;;
20535;SDS011;10426;49.420;8.390;2023-03-11T08:19:16;5.00;;;1.80;;
20535;SDS011;10426;49.420;8.390;2023-03-11T08:21:42;5.07;;;1.90;;
20535;SDS011;10426;49.420;8.390;2023-03-11T08:24:09;4.43;;;1.67;;
20535;SDS011;10426;49.420;8.390;2023-03-11T08:26:37;4.97;;;1.60;;
20535;SDS011;10426;49.420;8.390;2023-03-11T08:29:05;4.97;;;2.03;;
20535;SDS011;10426;49.420;8.390;2023-03-11T08:31:32;4.00;;;1.77;;
20535;SDS011;10426;49.420;8.390;2023-03-11T08:34:00;4.20;;;1.90;;
20535;SDS011;10426;49.420;8.390;2023-03-11T08:36:26;5.63;;;2.08;;
20535;SDS011;10426;49.420;8.390;2023-03-11T08:38:53;3.83;;;1.70;;
20535;SDS011;10426;49.420;8.390;2023-03-11T08:41:20;4.18;;;1.60;;
20535;SDS011;10426;49.420;8.390;2023-03-11T08:43:46;5.30;;;1.90;;
20535;SDS011;10426;49.420;8.390;2023-03-11T08:46:16;4.75;;;1.70;;
20535;SDS011;10426;49.420;8.390;2023-03-11T08:48:44;4.60;;;1.73;;
20535;SDS011;10426;49.420;8.390;2023-03-11T08:51:11;4.38;;;1.73;;
20535;SDS011;10426;49.420;8.390;2023-03-11T08:53:38;2.95;;;1.50;;
20535;SDS011;10426;49.420;8.390;2023-03-11T08:56:05;6.07;;;1.45;;
20535;SDS011;10426;49.420;8.390;2023-03-11T08:58:32;3.58;;;1.60;;
20535;SDS011;10426;49.420;8.390;2023-03-11T09:00:58;5.38;;;1.77;;
20535;SDS011;10426;49.420;8.390;2023-03-11T09:03:26;4.38;;;1.60;;
20535;SDS011;10426;49.420;8.390;2023-03-11T09:05:56;3.47;;;1.50;;
20535;SDS011;10426;49.420;8.390;2023-03-11T09:08:22;6.82;;;1.70;;
20535;SDS011;10426;49.420;8.390;2023-03-11T09:10:49;2.80;;;1.30;;
20535;SDS011;10426;49.420;8.390;2023-03-11T09:13:16;4.00;;;1.52;;
20535;SDS011;10426;49.420;8.390;2023-03-11T09:15:42;3.80;;;1.40;;
20535;SDS011;10426;49.420;8.390;2023-03-11T09:18:10;3.78;;;1.45;;
20535;SDS011;10426;49.420;8.390;2023-03-11T09:20:38;4.47;;;1.30;;
20535;SDS011;10426;49.420;8.390;2023-03-11T09:23:04;3.50;;;1.40;;
20535;SDS011;10426;49.420;8.390;2023-03-11T09:25:31;4.28;;;1.30;;
20535;SDS011;10426;49.420;8.390;2023-03-11T09:27:58;4.50;;;1.30;;
20535;SDS011;10426;49.420;8.390;2023-03-11T09:30:24;4.55;;;1.50;;
20535;SDS011;10426;49.420;8.390;2023-03-11T09:32:51;3.17;;;1.20;;
20535;SDS011;10426;49.420;8.390;2023-03-11T09:35:17;3.70;;;1.40;;
20535;SDS011;10426;49.420;8.390;2023-03-11T09:37:45;5.07;;;1.60;;
20535;SDS011;10426;49.420;8.390;2023-03-11T09:40:12;3.53;;;1.50;;
20535;SDS011;10426;49.420;8.390;2023-03-11T09:42:42;3.67;;;1.35;;
20535;SDS011;10426;49.420;8.390;2023-03-11T09:45:12;1.98;;;1.27;;
20535;SDS011;10426;49.420;8.390;2023-03-11T09:47:42;1.90;;;1.10;;
20535;SDS011;10426;49.420;8.390;2023-03-11T09:53:00;3.00;;;1.23;;
20535;SDS011;10426;49.420;8.390;2023-03-11T09:55:38;4.38;;;1.10;;
20535;SDS011;10426;49.420;8.390;2023-03-11T09:58:11;2.17;;;1.20;;
20535;SDS011;10426;49.420;8.390;2023-03-11T10:00:38;2.63;;;1.40;;
20535;SDS011;10426;49.420;8.390;2023-03-11T10:03:09;1.73;;;1.08;;
20535;SDS011;10426;49.420;8.390;2023-03-11T10:05:38;3.03;;;1.10;;
20535;SDS011;10426;49.420;8.390;2023-03-11T10:08:11;2.65;;;1.17;;
20535;SDS011;10426;49.420;8.390;2023-03-11T10:10:39;2.35;;;1.05;;
20535;SDS011;10426;49.420;8.390;2023-03-11T10:13:09;1.90;;;1.02;;
20535;SDS011;10426;49.420;8.390;2023-03-11T10:15:41;1.58;;;0.88;;
20535;SDS011;10426;49.420;8.390;2023-03-11T10:18:25;2.00;;;1.00;;
20535;SDS011;10426;49.420;8.390;2023-03-11T10:20:57;1.48;;;0.90;;
20535;SDS011;10426;49.420;8.390;2023-03-11T10:23:28;2.38;;;1.00;;
20535;SDS011;10426;49.420;8.390;2023-03-11T10:25:59;2.85;;;1.20;;
20535;SDS011;10426;49.420;8.390;2023-03-11T10:28:30;3.92;;;1.40;;
20535;SDS011;10426;49.420;8.390;2023-03-11T10:31:00;2.10;;;1.15;;
20535;SDS011;10426;49.420;8.390;2023-03-11T10:33:29;4.88;;;1.27;;
20535;SDS011;10426;49.420;8.390;2023-03-11T10:36:00;1.47;;;1.00;;
20535;SDS011;10426;49.420;8.390;2023-03-11T10:38:31;1.45;;;1.00;;
20535;SDS011;10426;49.420;8.390;2023-03-11T10:41:00;2.80;;;1.33;;
20535;SDS011;10426;49.420;8.390;2023-03-11T10:43:30;2.85;;;1.20;;
20535;SDS011;10426;49.420;8.390;2023-03-11T10:45:58;2.35;;;1.17;;
20535;SDS011;10426;49.420;8.390;2023-03-11T10:48:24;2.92;;;1.10;;
20535;SDS011;10426;49.420;8.390;2023-03-11T10:50:53;1.83;;;0.90;;
20535;SDS011;10426;49.420;8.390;2023-03-11T10:53:22;2.55;;;0.90;;
20535;SDS011;10426;49.420;8.390;2023-03-11T10:55:51;2.87;;;1.10;;
20535;SDS011;10426;49.420;8.390;2023-03-11T10:58:18;3.10;;;1.27;;
20535;SDS011;10426;49.420;8.390;2023-03-11T11:00:45;2.85;;;1.02;;
20535;SDS011;10426;49.420;8.390;2023-03-11T11:03:24;2.83;;;1.30;;
20535;SDS011;10426;49.420;8.390;2023-03-11T11:05:56;3.97;;;1.30;;
20535;SDS011;10426;49.420;8.390;2023-03-11T11:08:23;1.53;;;1.00;;
20535;SDS011;10426;49.420;8.390;2023-03-11T11:10:51;2.08;;;1.10;;
20535;SDS011;10426;49.420;8.390;2023-03-11T11:13:19;3.85;;;1.20;;
20535;SDS011;10426;49.420;8.390;2023-03-11T11:15:53;3.50;;;1.35;;
20535;SDS011;10426;49.420;8.390;2023-03-11T11:18:21;2.88;;;1.40;;
20535;SDS011;10426;49.420;8.390;2023-03-11T11:20:58;2.63;;;1.50;;
20535;SDS011;10426;49.420;8.390;2023-03-11T11:23:27;3.35;;;2.28;;
20535;SDS011;10426;49.420;8.390;2023-03-11T11:25:58;4.83;;;3.27;;
20535;SDS011;10426;49.420;8.390;2023-03-11T11:28:25;8.77;;;6.47;;
20535;SDS011;10426;49.420;8.390;2023-03-11T11:30:53;3.63;;;2.10;;
20535;SDS011;10426;49.420;8.390;2023-03-11T11:33:21;4.35;;;1.23;;
20535;SDS011;10426;49.420;8.390;2023-03-11T11:35:49;1.92;;;1.30;;
20535;SDS011;10426;49.420;8.390;2023-03-11T11:38:16;1.20;;;1.10;;
20535;SDS011;10426;49.420;8.390;2023-03-11T11:40:43;2.25;;;1.20;;
20535;SDS011;10426;49.420;8.390;2023-03-11T11:43:13;4.25;;;1.50;;
20535;SDS011;10426;49.420;8.390;2023-03-11T11:45:42;1.92;;;1.30;;
20535;SDS011;10426;49.420;8.390;2023-03-11T11:48:13;2.88;;;1.20;;
20535;SDS011;10426;49.420;8.390;2023-03-11T11:50:40;1.40;;;1.10;;
20535;SDS011;10426;49.420;8.390;2023-03-11T11:53:11;1.40;;;1.20;;
20535;SDS011;10426;49.420;8.390;2023-03-11T11:55:40;3.35;;;1.40;;
20535;SDS011;10426;49.420;8.390;2023-03-11T11:58:09;2.67;;;1.30;;
20535;SDS011;10426;49.420;8.390;2023-03-11T12:00:40;2.45;;;1.20;;
20535;SDS011;10426;49.420;8.390;2023-03-11T12:03:10;1.20;;;1.10;;
20535;SDS011;10426;49.420;8.390;2023-03-11T12:05:44;3.88;;;1.33;;
20535;SDS011;10426;49.420;8.390;2023-03-11T12:08:17;3.17;;;1.20;;
20535;SDS011;10426;49.420;8.390;2023-03-11T12:10:46;1.60;;;1.27;;
20535;SDS011;10426;49.420;8.390;2023-03-11T12:13:20;1.60;;;1.25;;
20535;SDS011;10426;49.420;8.390;2023-03-11T12:15:52;1.40;;;1.30;;
20535;SDS011;10426;49.420;8.390;2023-03-11T12:18:21;2.97;;;1.20;;
20535;SDS011;10426;49.420;8.390;2023-03-11T12:20:51;2.55;;;1.20;;
20535;SDS011;10426;49.420;8.390;2023-03-11T12:23:19;1.50;;;1.10;;
20535;SDS011;10426;49.420;8.390;2023-03-11T12:26:00;1.70;;;1.10;;
20535;SDS011;10426;49.420;8.390;2023-03-11T12:28:32;2.63;;;1.30;;
20535;SDS011;10426;49.420;8.390;2023-03-11T12:31:04;2.33;;;1.30;;
20535;SDS011;10426;49.420;8.390;2023-03-11T12:33:34;2.65;;;0.93;;
20535;SDS011;10426;49.420;8.390;2023-03-11T12:36:01;5.57;;;1.60;;
20535;SDS011;10426;49.420;8.390;2023-03-11T12:38:30;3.00;;;1.20;;
20535;SDS011;10426;49.420;8.390;2023-03-11T12:40:59;2.30;;;1.40;;
20535;SDS011;10426;49.420;8.390;2023-03-11T12:43:27;2.65;;;1.20;;
20535;SDS011;10426;49.420;8.390;2023-03-11T12:46:15;1.58;;;1.20;;
20535;SDS011;10426;49.420;8.390;2023-03-11T12:48:43;2.03;;;1.10;;
20535;SDS011;10426;49.420;8.390;2023-03-11T12:51:36;1.27;;;1.00;;
20535;SDS011;10426;49.420;8.390;2023-03-11T12:56:45;1.58;;;1.40;;
20535;SDS011;10426;49.420;8.390;2023-03-11T12:59:33;2.45;;;1.48;;
20535;SDS011;10426;49.420;8.390;2023-03-11T13:02:10;2.83;;;1.33;;
20535;SDS011;10426;49.420;8.390;2023-03-11T13:04:46;2.22;;;1.58;;
20535;SDS011;10426;49.420;8.390;2023-03-11T13:07:31;1.80;;;1.48;;
20535;SDS011;10426;49.420;8.390;2023-03-11T13:10:02;6.97;;;5.18;;
20535;SDS011;10426;49.420;8.390;2023-03-11T13:12:37;2.85;;;1.95;;
20535;SDS011;10426;49.420;8.390;2023-03-11T13:17:58;1.73;;;1.20;;
20535;SDS011;10426;49.420;8.390;2023-03-11T13:20:41;3.07;;;1.20;;
20535;SDS011;10426;49.420;8.390;2023-03-11T13:23:08;2.47;;;1.20;;
20535;SDS011;10426;49.420;8.390;2023-03-11T13:25:38;1.65;;;1.55;;
20535;SDS011;10426;49.420;8.390;2023-03-11T13:30:50;1.65;;;1.30;;
20535;SDS011;10426;49.420;8.390;2023-03-11T13:33:22;1.37;;;1.03;;
20535;SDS011;10426;49.420;8.390;2023-03-11T13:35:59;1.83;;;1.30;;
20535;SDS011;10426;49.420;8.390;2023-03-11T13:41:23;2.45;;;1.40;;
20535;SDS011;10426;49.420;8.390;2023-03-11T13:43:53;3.00;;;1.38;;
20535;SDS011;10426;49.420;8.390;2023-03-11T13:46:25;2.27;;;1.30;;
20535;SDS011;10426;49.420;8.390;2023-03-11T13:48:55;4.10;;;1.35;;
20535;SDS011;10426;49.420;8.390;2023-03-11T13:51:27;2.20;;;1.20;;
20535;SDS011;10426;49.420;8.390;2023-03-11T13:53:58;2.30;;;1.30;;
20535;SDS011;10426;49.420;8.390;2023-03-11T13:56:26;3.40;;;1.30;;
20535;SDS011;10426;49.420;8.390;2023-03-11T13:58:53;3.28;;;1.65;;
20535;SDS011;10426;49.420;8.390;2023-03-11T14:01:20;3.20;;;1.30;;
20535;SDS011;10426;49.420;8.390;2023-03-11T14:03:47;2.90;;;1.70;;
20535;SDS011;10426;49.420;8.390;2023-03-11T14:06:16;2.67;;;1.45;;
20535;SDS011;10426;49.420;8.390;2023-03-11T14:08:46;2.05;;;1.38;;
20535;SDS011;10426;49.420;8.390;2023-03-11T14:11:17;3.33;;;1.20;;
20535;SDS011;10426;49.420;8.390;2023-03-11T14:13:45;3.05;;;1.40;;
20535;SDS011;10426;49.420;8.390;2023-03-11T14:16:12;3.83;;;1.40;;
20535;SDS011;10426;49.420;8.390;2023-03-11T14:18:41;3.07;;;1.30;;
20535;SDS011;10426;49.420;8.390;2023-03-11T14:21:11;2.42;;;1.40;;
20535;SDS011;10426;49.420;8.390;2023-03-11T14:23:41;1.88;;;1.50;;
20535;SDS011;10426;49.420;8.390;2023-03-11T14:26:10;2.33;;;1.40;;
20535;SDS011;10426;49.420;8.390;2023-03-11T14:28:39;2.53;;;1.20;;
20535;SDS011;10426;49.420;8.390;2023-03-11T14:31:06;2.35;;;1.45;;
20535;SDS011;10426;49.420;8.390;2023-03-11T14:33:33;2.60;;;1.58;;
20535;SDS011;10426;49.420;8.390;2023-03-11T14:36:01;1.52;;;1.30;;
20535;SDS011;10426;49.420;8.390;2023-03-11T14:38:29;3.17;;;1.55;;
20535;SDS011;10426;49.420;8.390;2023-03-11T14:40:58;4.43;;;1.58;;
20535;SDS011;10426;49.420;8.390;2023-03-11T14:43:25;1.83;;;1.40;;
20535;SDS011;10426;49.420;8.390;2023-03-11T14:45:52;2.13;;;1.20;;
20535;SDS011;10426;49.420;8.390;2023-03-11T14:48:21;3.30;;;1.70;;
20535;SDS011;10426;49.420;8.390;2023-03-11T14:50:50;2.75;;;1.65;;
20535;SDS011;10426;49.420;8.390;2023-03-11T14:53:18;3.25;;;1.80;;
20535;SDS011;10426;49.420;8.390;2023-03-11T14:55:48;2.85;;;1.52;;
20535;SDS011;10426;49.420;8.390;2023-03-11T14:58:19;3.28;;;1.48;;
20535;SDS011;10426;49.420;8.390;2023-03-11T15:00:48;3.10;;;1.70;;
20535;SDS011;10426;49.420;8.390;2023-03-11T15:03:18;2.83;;;1.50;;
20535;SDS011;10426;49.420;8.390;2023-03-11T15:05:47;3.58;;;1.77;;
20535;SDS011;10426;49.420;8.390;2023-03-11T15:08:16;2.90;;;1.40;;